createdAt,value
2018-07-21T00:01:13.578Z,73.02
2018-07-21T00:03:43.198Z,73.08
2018-07-21T00:06:13.518Z,72.91
2018-07-21T00:08:42.983Z,73.41
2018-07-21T00:11:12.516Z,73.67
2018-07-21T00:13:42.225Z,72.77
2018-07-21T00:16:11.639Z,73.97
2018-07-21T00:18:41.173Z,74.70
2018-07-21T00:21:10.587Z,75.73
2018-07-21T00:23:40.098Z,75.77
2018-07-21T00:26:09.679Z,76.23
2018-07-21T00:28:39.749Z,76.88
2018-07-21T00:31:09.165Z,76.54
2018-07-21T00:33:38.676Z,76.27
2018-07-21T00:36:08.388Z,75.68
2018-07-21T00:38:37.828Z,76.63
2018-07-21T00:41:07.321Z,75.93
2018-07-21T00:43:36.750Z,76.55
2018-07-21T00:46:07.377Z,76.29
2018-07-21T00:48:37.381Z,76.03
2018-07-21T00:51:06.974Z,77.08
2018-07-21T00:53:36.394Z,76.42
2018-07-21T00:56:05.820Z,76.55
2018-07-21T00:58:35.330Z,76.79
2018-07-21T01:01:04.720Z,77.51
2018-07-21T01:03:34.210Z,77.50
2018-07-21T01:06:03.726Z,78.26
2018-07-21T01:08:33.152Z,79.05
2018-07-21T01:11:02.613Z,78.45
2018-07-21T01:13:32.251Z,79.11
2018-07-21T01:16:02.351Z,78.72
2018-07-21T01:18:31.999Z,78.36
2018-07-21T01:21:01.502Z,79.15
2018-07-21T01:23:31.020Z,79.14
2018-07-21T01:26:00.498Z,79.07
2018-07-21T01:28:30.710Z,79.72
2018-07-21T01:31:00.192Z,79.42
2018-07-21T01:33:29.690Z,80.91
2018-07-21T01:35:59.062Z,80.60
2018-07-21T01:38:28.681Z,81.50
2018-07-21T01:40:58.638Z,81.79
2018-07-21T01:43:28.071Z,81.69
2018-07-21T01:45:57.510Z,81.64
2018-07-21T01:48:27.278Z,81.68
2018-07-21T01:50:56.638Z,82.49
2018-07-21T01:53:26.156Z,81.81
2018-07-21T01:55:55.620Z,81.36
2018-07-21T01:58:25.212Z,81.31
2018-07-21T02:00:54.574Z,81.72
2018-07-21T02:03:24.162Z,81.22
2018-07-21T02:05:53.669Z,80.70
2018-07-21T02:08:23.302Z,80.87
2018-07-21T02:10:52.976Z,80.79
2018-07-21T02:13:22.812Z,81.64
2018-07-21T02:15:52.283Z,81.46
2018-07-21T02:18:21.828Z,80.51
2018-07-21T02:20:51.280Z,80.59
2018-07-21T02:23:21.555Z,81.02
2018-07-21T02:25:50.972Z,81.82
2018-07-21T02:28:20.556Z,81.14
2018-07-21T02:30:50.565Z,80.58
2018-07-21T02:33:20.075Z,80.33
2018-07-21T02:35:49.618Z,80.53
2018-07-21T02:38:19.341Z,80.80
2018-07-21T02:40:48.827Z,79.64
2018-07-21T02:43:18.457Z,80.09
2018-07-21T02:45:47.997Z,80.63
2018-07-21T02:48:17.575Z,80.96
2018-07-21T02:50:47.110Z,81.02
2018-07-21T02:53:16.597Z,81.73
2018-07-21T02:55:46.433Z,81.23
2018-07-21T02:58:15.793Z,80.88
2018-07-21T03:00:45.192Z,80.65
2018-07-21T03:03:14.771Z,81.00
2018-07-21T03:05:44.239Z,80.94
2018-07-21T03:08:13.833Z,80.76
2018-07-21T03:10:43.233Z,80.00
2018-07-21T03:13:12.797Z,79.37
2018-07-21T03:15:42.327Z,79.04
2018-07-21T03:18:12.208Z,78.95
2018-07-21T03:20:41.671Z,77.46
2018-07-21T03:23:11.223Z,79.35
2018-07-21T03:25:40.726Z,78.25
2018-07-21T03:28:10.138Z,78.35
2018-07-21T03:30:39.613Z,78.73
2018-07-21T03:33:09.296Z,78.67
2018-07-21T03:35:38.551Z,79.04
2018-07-21T03:38:08.105Z,79.83
2018-07-21T03:40:37.516Z,80.01
2018-07-21T03:43:07.200Z,79.99
2018-07-21T03:45:36.727Z,79.91
2018-07-21T03:48:06.333Z,80.19
2018-07-21T03:50:36.010Z,81.45
2018-07-21T03:53:06.411Z,82.11
2018-07-21T03:55:35.852Z,80.88
2018-07-21T03:58:05.434Z,81.56
2018-07-21T04:00:35.489Z,81.80
2018-07-21T04:03:05.029Z,79.55
2018-07-21T04:05:34.483Z,80.30
2018-07-21T04:08:04.004Z,81.07
2018-07-21T04:10:33.393Z,81.20
2018-07-21T04:13:02.785Z,80.47
2018-07-21T04:15:32.222Z,81.03
2018-07-21T04:18:02.173Z,81.11
2018-07-21T04:20:31.756Z,80.54
2018-07-21T04:23:01.514Z,80.66
2018-07-21T04:25:30.873Z,80.91
2018-07-21T04:28:02.006Z,81.13
2018-07-21T04:30:31.391Z,79.50
2018-07-21T04:33:00.979Z,79.11
2018-07-21T04:35:31.276Z,77.69
2018-07-21T04:38:01.346Z,78.02
2018-07-21T04:40:30.750Z,79.03
2018-07-21T04:43:00.289Z,79.01
2018-07-21T04:45:29.622Z,79.49
2018-07-21T04:47:59.200Z,79.39
2018-07-21T04:50:28.733Z,79.19
2018-07-21T04:52:58.291Z,79.17
2018-07-21T04:55:27.691Z,78.93
2018-07-21T04:57:57.191Z,79.60
2018-07-21T05:00:26.632Z,78.96
2018-07-21T05:02:56.374Z,78.14
2018-07-21T05:05:26.003Z,78.55
2018-07-21T05:07:55.613Z,77.40
2018-07-21T05:10:25.036Z,76.47
2018-07-21T05:12:54.466Z,77.13
2018-07-21T05:15:26.576Z,76.01
2018-07-21T05:17:56.243Z,75.63
2018-07-21T05:20:25.623Z,75.12
2018-07-21T05:22:55.104Z,75.76
2018-07-21T05:25:24.511Z,75.16
2018-07-21T05:27:53.982Z,75.99
2018-07-21T05:30:23.367Z,74.82
2018-07-21T05:32:53.622Z,74.87
2018-07-21T05:35:23.063Z,74.75
2018-07-21T05:37:54.546Z,74.09
2018-07-21T05:40:24.102Z,73.59
2018-07-21T05:42:53.502Z,73.84
2018-07-21T05:45:22.943Z,73.33
2018-07-21T05:47:52.382Z,72.89
2018-07-21T05:50:22.003Z,72.53
2018-07-21T05:52:51.831Z,72.18
2018-07-21T05:55:21.326Z,72.55
2018-07-21T05:57:51.918Z,70.96
2018-07-21T06:00:21.375Z,70.49
2018-07-21T06:02:51.045Z,71.51
2018-07-21T06:05:20.564Z,69.76
2018-07-21T06:07:49.964Z,70.06
2018-07-21T06:10:19.522Z,70.24
2018-07-21T06:12:49.035Z,70.69
2018-07-21T06:15:18.596Z,69.79
2018-07-21T06:17:48.019Z,70.48
2018-07-21T06:20:17.636Z,70.50
2018-07-21T06:22:47.036Z,70.18
2018-07-21T06:25:16.816Z,69.03
2018-07-21T06:27:46.301Z,68.16
2018-07-21T06:30:15.819Z,69.29
2018-07-21T06:32:45.560Z,69.19
2018-07-21T06:35:15.119Z,67.54
2018-07-21T06:37:44.858Z,67.37
2018-07-21T06:40:14.419Z,67.68
2018-07-21T06:42:44.019Z,68.27
2018-07-21T06:45:13.459Z,68.79
2018-07-21T06:47:42.859Z,67.97
2018-07-21T06:50:12.318Z,67.78
2018-07-21T06:52:41.758Z,67.64
2018-07-21T06:55:13.018Z,67.03
2018-07-21T06:57:44.718Z,66.76
2018-07-21T07:00:14.198Z,68.01
2018-07-21T07:02:43.598Z,67.03
2018-07-21T07:05:13.158Z,66.04
2018-07-21T07:07:42.559Z,66.58
2018-07-21T07:10:12.017Z,66.24
2018-07-21T07:12:41.597Z,65.33
2018-07-21T07:15:11.416Z,65.80
2018-07-21T07:17:40.882Z,62.28
2018-07-21T07:20:10.404Z,65.24
2018-07-21T07:22:39.838Z,65.18
2018-07-21T07:25:09.678Z,65.54
2018-07-21T07:27:39.498Z,63.68
2018-07-21T07:30:09.204Z,64.59
2018-07-21T07:32:38.598Z,64.96
2018-07-21T07:35:08.560Z,64.70
2018-07-21T07:37:37.978Z,65.93
2018-07-21T07:40:08.399Z,65.66
2018-07-21T07:42:37.860Z,64.33
2018-07-21T07:45:07.346Z,62.60
2018-07-21T07:47:36.698Z,62.63
2018-07-21T07:50:06.798Z,63.33
2018-07-21T07:52:36.238Z,62.64
2018-07-21T07:55:05.743Z,62.02
2018-07-21T07:57:35.098Z,63.38
2018-07-21T08:00:04.458Z,61.63
2018-07-21T08:02:34.058Z,63.03
2018-07-21T08:05:03.518Z,60.14
2018-07-21T08:07:33.039Z,62.04
2018-07-21T08:10:02.618Z,60.32
2018-07-21T08:12:32.018Z,60.47
2018-07-21T08:15:01.578Z,58.23
2018-07-21T08:17:31.079Z,57.90
2018-07-21T08:20:04.208Z,56.96
2018-07-21T08:22:34.300Z,56.68
2018-07-21T08:25:04.027Z,57.33
2018-07-21T08:27:33.253Z,57.79
2018-07-21T08:30:02.479Z,56.49
2018-07-21T08:32:31.752Z,56.03
2018-07-21T08:35:01.310Z,58.11
2018-07-21T08:37:30.347Z,55.99
2018-07-21T08:39:59.839Z,56.51
2018-07-21T08:42:29.204Z,57.97
2018-07-21T08:44:58.729Z,58.73
2018-07-21T08:47:28.088Z,59.80
2018-07-21T08:49:57.630Z,58.77
2018-07-21T08:52:27.241Z,59.06
2018-07-21T08:54:57.926Z,60.06
2018-07-21T08:57:27.426Z,59.82
2018-07-21T08:59:56.890Z,60.65
2018-07-21T09:02:26.407Z,58.47
2018-07-21T09:04:56.048Z,60.17
2018-07-21T09:07:25.472Z,58.54
2018-07-21T09:09:55.265Z,58.30
2018-07-21T09:12:24.724Z,57.00
2018-07-21T09:14:54.186Z,57.32
2018-07-21T09:17:23.584Z,56.77
2018-07-21T09:19:54.206Z,57.50
2018-07-21T09:22:23.746Z,55.39
2018-07-21T09:24:53.204Z,54.85
2018-07-21T09:27:22.666Z,55.94
2018-07-21T09:29:52.205Z,56.17
2018-07-21T09:32:21.512Z,52.95
2018-07-21T09:34:50.987Z,54.27
2018-07-21T09:37:20.613Z,50.57
2018-07-21T09:39:50.404Z,53.15
2018-07-21T09:42:19.905Z,52.74
2018-07-21T09:44:49.567Z,51.36
2018-07-21T09:47:18.986Z,51.10
2018-07-21T09:49:48.766Z,53.38
2018-07-21T09:52:18.323Z,53.80
2018-07-21T09:54:47.926Z,53.70
2018-07-21T09:57:17.567Z,53.83
2018-07-21T09:59:47.031Z,52.40
2018-07-21T10:02:16.405Z,51.73
2018-07-21T10:04:45.831Z,52.92
2018-07-21T10:07:15.587Z,52.29
2018-07-21T10:09:45.109Z,51.82
2018-07-21T10:12:14.556Z,53.08
2018-07-21T10:14:44.025Z,50.86
2018-07-21T10:17:13.665Z,55.15
2018-07-21T10:19:43.204Z,49.55
2018-07-21T10:22:12.656Z,50.83
2018-07-21T10:24:47.425Z,50.63
2018-07-21T10:27:17.344Z,49.99
2018-07-21T10:29:47.024Z,49.82
2018-07-21T10:32:16.466Z,48.03
2018-07-21T10:34:46.165Z,50.67
2018-07-21T10:37:15.609Z,50.50
2018-07-21T10:39:45.346Z,49.82
2018-07-21T10:42:14.785Z,48.26
2018-07-21T10:44:44.864Z,49.28
2018-07-21T10:47:14.325Z,49.19
2018-07-21T10:49:43.846Z,47.45
2018-07-21T10:52:13.143Z,48.46
2018-07-21T10:54:42.584Z,49.14
2018-07-21T10:57:12.135Z,48.06
2018-07-21T10:59:42.138Z,48.37
2018-07-21T11:02:11.585Z,48.78
2018-07-21T11:04:41.139Z,46.73
2018-07-21T11:07:10.480Z,46.72
2018-07-21T11:09:40.557Z,44.74
2018-07-21T11:12:09.965Z,46.65
2018-07-21T11:14:39.417Z,46.17
2018-07-21T11:17:08.936Z,48.22
2018-07-21T11:19:38.376Z,44.87
2018-07-21T11:22:08.095Z,43.26
2018-07-21T11:24:37.478Z,44.79
2018-07-21T11:27:06.917Z,44.38
2018-07-21T11:29:36.376Z,40.98
2018-07-21T11:32:05.918Z,40.60
2018-07-21T11:34:35.391Z,38.42
2018-07-21T11:37:05.028Z,40.71
2018-07-21T11:39:34.482Z,40.00
2018-07-21T11:42:04.137Z,39.41
2018-07-21T11:44:33.724Z,39.23
2018-07-21T11:47:03.838Z,40.66
2018-07-21T11:49:33.222Z,41.06
2018-07-21T11:52:02.869Z,39.92
2018-07-21T11:54:32.212Z,41.99
2018-07-21T11:57:02.978Z,42.95
2018-07-21T11:59:33.973Z,47.17
2018-07-21T12:02:03.592Z,48.32
2018-07-21T12:04:32.951Z,47.45
2018-07-21T12:07:02.531Z,47.14
2018-07-21T12:09:31.973Z,50.37
2018-07-21T12:12:01.508Z,53.60
2018-07-21T12:14:30.896Z,58.29
2018-07-21T12:17:00.309Z,54.34
2018-07-21T12:19:29.691Z,53.53
2018-07-21T12:21:59.313Z,55.29
2018-07-21T12:24:28.769Z,54.78
2018-07-21T12:26:58.319Z,55.29
2018-07-21T12:29:27.838Z,53.17
2018-07-21T12:31:57.602Z,56.16
2018-07-21T12:34:26.998Z,51.13
2018-07-21T12:36:56.438Z,51.00
2018-07-21T12:39:26.178Z,50.73
2018-07-21T12:41:55.638Z,52.09
2018-07-21T12:44:25.026Z,49.15
2018-07-21T12:46:54.506Z,52.35
2018-07-21T12:49:24.000Z,49.02
2018-07-21T12:51:53.639Z,52.79
2018-07-21T12:54:23.041Z,52.07
2018-07-21T12:56:52.622Z,47.77
2018-07-21T12:59:22.319Z,50.69
2018-07-21T13:01:51.959Z,48.77
2018-07-21T13:04:21.479Z,48.37
2018-07-21T13:06:51.037Z,50.96
2018-07-21T13:09:20.639Z,50.85
2018-07-21T13:11:50.140Z,46.30
2018-07-21T13:14:19.582Z,47.91
2018-07-21T13:16:49.199Z,44.57
2018-07-21T13:19:18.840Z,43.39
2018-07-21T13:21:48.619Z,42.85
2018-07-21T13:24:17.980Z,44.76
2018-07-21T13:26:47.550Z,45.26
2018-07-21T13:29:17.042Z,43.05
2018-07-21T13:31:46.710Z,44.40
2018-07-21T13:34:16.242Z,41.88
2018-07-21T13:36:45.819Z,42.03
2018-07-21T13:39:15.169Z,43.16
2018-07-21T13:41:44.821Z,43.02
2018-07-21T13:44:14.497Z,42.37
2018-07-21T13:46:44.008Z,43.56
2018-07-21T13:49:13.340Z,41.78
2018-07-21T13:51:42.940Z,44.83
2018-07-21T13:54:12.563Z,44.83
2018-07-21T13:56:42.099Z,43.92
2018-07-21T13:59:11.520Z,41.87
2018-07-21T14:01:41.540Z,41.16
2018-07-21T14:04:10.940Z,40.30
2018-07-21T14:06:40.381Z,38.61
2018-07-21T14:09:10.948Z,39.37
2018-07-21T14:11:40.563Z,38.80
2018-07-21T14:14:10.081Z,40.52
2018-07-21T14:16:39.541Z,39.92
2018-07-21T14:19:08.920Z,40.51
2018-07-21T14:21:38.360Z,39.69
2018-07-21T14:24:07.823Z,38.91
2018-07-21T14:26:37.241Z,36.18
2018-07-21T14:29:07.262Z,36.88
2018-07-21T14:31:36.720Z,34.21
2018-07-21T14:34:06.200Z,34.26
2018-07-21T14:36:35.708Z,34.28
2018-07-21T14:39:07.042Z,34.12
2018-07-21T14:41:37.466Z,35.33
2018-07-21T14:44:06.880Z,33.78
2018-07-21T14:46:36.560Z,34.59
2018-07-21T14:49:06.724Z,33.73
2018-07-21T14:51:36.760Z,34.15
2018-07-21T14:54:06.368Z,37.23
2018-07-21T14:56:35.925Z,36.10
2018-07-21T14:59:05.525Z,37.17
2018-07-21T15:01:35.121Z,37.28
2018-07-21T15:04:04.563Z,36.77
2018-07-21T15:06:34.096Z,38.76
2018-07-21T15:09:03.797Z,32.80
2018-07-21T15:11:33.311Z,33.91
2018-07-21T15:14:03.327Z,33.35
2018-07-21T15:16:32.931Z,33.27
2018-07-21T15:19:02.439Z,33.93
2018-07-21T15:21:35.546Z,34.71
2018-07-21T15:24:05.070Z,33.60
2018-07-21T15:26:34.646Z,34.31
2018-07-21T15:29:04.285Z,35.04
2018-07-21T15:31:34.056Z,34.89
2018-07-21T15:34:03.580Z,36.46
2018-07-21T15:36:33.138Z,36.67
2018-07-21T15:39:02.531Z,37.80
2018-07-21T15:41:32.239Z,37.94
2018-07-21T15:44:01.759Z,36.47
2018-07-21T15:46:31.278Z,37.85
2018-07-21T15:49:01.040Z,36.95
2018-07-21T15:51:30.578Z,38.17
2018-07-21T15:54:00.058Z,38.90
2018-07-21T15:56:29.666Z,37.83
2018-07-21T15:58:59.118Z,37.64
2018-07-21T16:01:28.786Z,38.91
2018-07-21T16:03:58.351Z,40.55
2018-07-21T16:06:27.905Z,38.77
2018-07-21T16:08:57.311Z,39.37
2018-07-21T16:11:27.089Z,39.49
2018-07-21T16:13:56.549Z,39.95
2018-07-21T16:16:27.108Z,38.68
2018-07-21T16:18:56.550Z,38.39
2018-07-21T16:21:26.877Z,37.42
2018-07-21T16:23:56.179Z,39.08
2018-07-21T16:26:25.650Z,36.93
2018-07-21T16:28:55.109Z,35.82
2018-07-21T16:31:24.616Z,35.19
2018-07-21T16:33:54.077Z,33.74
2018-07-21T16:36:23.790Z,33.63
2018-07-21T16:38:53.330Z,33.85
2018-07-21T16:41:22.969Z,34.01
2018-07-21T16:43:52.389Z,34.32
2018-07-21T16:46:22.985Z,34.22
2018-07-21T16:48:52.388Z,33.73
2018-07-21T16:51:22.769Z,33.87
2018-07-21T16:53:52.248Z,34.77
2018-07-21T16:56:22.569Z,34.67
2018-07-21T16:58:52.223Z,35.73
2018-07-21T17:01:21.669Z,34.67
2018-07-21T17:03:51.238Z,35.28
2018-07-21T17:06:20.809Z,34.67
2018-07-21T17:08:50.320Z,34.78
2018-07-21T17:11:19.724Z,35.19
2018-07-21T17:13:49.368Z,35.95
2018-07-21T17:16:19.624Z,35.19
2018-07-21T17:18:49.285Z,34.72
2018-07-21T17:21:18.773Z,35.80
2018-07-21T17:23:48.345Z,35.32
2018-07-21T17:26:17.872Z,34.07
2018-07-21T17:28:47.485Z,35.37
2018-07-21T17:31:16.924Z,35.92
2018-07-21T17:33:46.455Z,37.49
2018-07-21T17:36:15.813Z,38.21
2018-07-21T17:38:45.356Z,38.03
2018-07-21T17:41:15.273Z,38.06
2018-07-21T17:43:44.748Z,37.96
2018-07-21T17:46:14.148Z,38.90
2018-07-21T17:48:43.647Z,39.91
2018-07-21T17:51:12.968Z,40.16
2018-07-21T17:53:42.551Z,40.84
2018-07-21T17:56:11.968Z,42.06
2018-07-21T17:58:41.449Z,43.32
2018-07-21T18:01:10.892Z,42.13
2018-07-21T18:03:40.501Z,43.56
2018-07-21T18:06:10.209Z,43.83
2018-07-21T18:08:40.788Z,45.50
2018-07-21T18:11:10.411Z,44.73
2018-07-21T18:13:40.405Z,45.93
2018-07-21T18:16:10.092Z,46.26
2018-07-21T18:18:39.783Z,46.22
2018-07-21T18:21:09.787Z,47.81
2018-07-21T18:23:39.411Z,48.35
2018-07-21T18:26:09.350Z,48.45
2018-07-21T18:28:39.419Z,48.22
2018-07-21T18:31:09.196Z,47.67
2018-07-21T18:33:38.703Z,48.83
2018-07-21T18:36:08.320Z,50.45
2018-07-21T18:38:38.144Z,50.05
2018-07-21T18:41:08.583Z,50.77
2018-07-21T18:43:38.630Z,50.65
2018-07-21T18:46:08.661Z,48.86
2018-07-21T18:48:38.194Z,50.53
2018-07-21T18:51:10.055Z,50.98
2018-07-21T18:53:39.671Z,50.21
2018-07-21T18:56:09.700Z,50.91
2018-07-21T18:58:39.442Z,51.39
2018-07-21T19:01:09.512Z,52.84
2018-07-21T19:03:39.173Z,52.67
2018-07-21T19:06:08.704Z,51.68
2018-07-21T19:08:43.422Z,51.94
2018-07-21T19:11:13.402Z,51.70
2018-07-21T19:13:42.963Z,53.81
2018-07-21T19:16:17.583Z,51.70
2018-07-21T19:18:47.202Z,55.27
2018-07-21T19:21:18.141Z,53.11
2018-07-21T19:23:48.582Z,52.80
2018-07-21T19:26:22.832Z,53.95
2018-07-21T19:28:53.001Z,52.64
2018-07-21T19:31:22.734Z,51.57
2018-07-21T19:33:52.257Z,54.39
2018-07-21T19:36:21.695Z,53.97
2018-07-21T19:38:51.414Z,53.99
2018-07-21T19:41:25.925Z,55.78
2018-07-21T19:43:55.375Z,56.48
2018-07-21T19:46:24.816Z,58.01
2018-07-21T19:48:54.421Z,59.03
2018-07-21T19:51:23.852Z,58.35
2018-07-21T19:53:53.414Z,59.60
2018-07-21T19:56:22.691Z,58.86
2018-07-21T19:58:52.556Z,58.48
2018-07-21T20:01:22.372Z,58.10
2018-07-21T20:03:51.772Z,60.37
2018-07-21T20:06:21.236Z,60.56
2018-07-21T20:08:50.940Z,60.94
2018-07-21T20:11:20.380Z,61.00
2018-07-21T20:13:50.081Z,62.08
2018-07-21T20:16:19.703Z,63.47
2018-07-21T20:18:49.285Z,63.24
2018-07-21T20:21:19.093Z,64.01
2018-07-21T20:23:48.547Z,64.14
2018-07-21T20:26:18.305Z,64.60
2018-07-21T20:28:47.850Z,65.20
2018-07-21T20:31:18.203Z,66.12
2018-07-21T20:33:47.733Z,66.58
2018-07-21T20:36:17.119Z,67.24
2018-07-21T20:38:46.638Z,66.72
2018-07-21T20:41:17.479Z,67.15
2018-07-21T20:43:47.043Z,66.61
2018-07-21T20:46:16.440Z,66.24
2018-07-21T20:48:45.920Z,67.06
2018-07-21T20:51:15.322Z,67.70
2018-07-21T20:53:44.917Z,68.73
2018-07-21T20:56:14.525Z,68.72
2018-07-21T20:58:44.129Z,68.11
2018-07-21T21:01:13.582Z,68.02
2018-07-21T21:03:43.389Z,68.35
2018-07-21T21:06:13.425Z,67.83
2018-07-21T21:08:42.943Z,67.72
2018-07-21T21:11:12.555Z,68.44
2018-07-21T21:13:42.142Z,69.05
2018-07-21T21:16:11.582Z,68.53
2018-07-21T21:18:41.025Z,69.23
2018-07-21T21:21:10.480Z,68.75
2018-07-21T21:23:39.933Z,69.65
2018-07-21T21:26:09.238Z,68.92
2018-07-21T21:28:38.802Z,70.20
2018-07-21T21:31:08.217Z,70.88
2018-07-21T21:33:37.663Z,70.35
2018-07-21T21:36:07.108Z,72.15
2018-07-21T21:38:36.469Z,73.01
2018-07-21T21:41:06.133Z,73.11
2018-07-21T21:43:35.610Z,73.18
2018-07-21T21:46:05.183Z,72.75
2018-07-21T21:48:34.724Z,74.69
2018-07-21T21:51:04.429Z,73.38
2018-07-21T21:53:33.788Z,73.21
2018-07-21T21:56:03.290Z,72.58
2018-07-21T21:58:32.706Z,74.04
2018-07-21T22:01:05.122Z,72.74
2018-07-21T22:03:34.890Z,72.67
2018-07-21T22:06:04.538Z,72.65
2018-07-21T22:08:34.806Z,72.70
2018-07-21T22:11:04.891Z,73.46
2018-07-21T22:13:34.725Z,73.78
2018-07-21T22:16:04.153Z,74.41
2018-07-21T22:18:33.982Z,74.50
2018-07-21T22:21:03.448Z,75.98
2018-07-21T22:23:32.866Z,76.43
2018-07-21T22:26:02.285Z,76.95
2018-07-21T22:28:31.763Z,77.27
2018-07-21T22:31:01.535Z,77.23
2018-07-21T22:33:31.011Z,77.98
2018-07-21T22:36:00.504Z,79.26
2018-07-21T22:38:30.141Z,79.65
2018-07-21T22:40:59.528Z,79.02
2018-07-21T22:43:29.272Z,78.88
2018-07-21T22:45:58.679Z,79.36
2018-07-21T22:48:28.160Z,79.46
2018-07-21T22:50:57.661Z,79.69
2018-07-21T22:53:27.123Z,79.91
2018-07-21T22:55:56.969Z,79.45
2018-07-21T22:58:26.490Z,80.02
2018-07-21T23:00:55.928Z,80.47
2018-07-21T23:03:25.883Z,79.77
2018-07-21T23:05:55.417Z,80.24
2018-07-21T23:08:24.890Z,80.32
2018-07-21T23:23:04.468Z,80.89
2018-07-21T23:25:34.189Z,80.98
2018-07-21T23:28:04.083Z,80.72
2018-07-21T23:30:33.772Z,80.95
2018-07-21T23:33:03.608Z,82.05
2018-07-21T23:35:34.164Z,82.13
2018-07-21T23:38:04.146Z,81.32
2018-07-21T23:40:34.292Z,82.03
2018-07-21T23:43:04.083Z,81.80
2018-07-21T23:45:33.862Z,82.02
2018-07-21T23:48:03.505Z,82.84
2018-07-21T23:50:33.354Z,82.47
2018-07-21T23:53:03.186Z,82.05
2018-07-21T23:55:33.022Z,81.84
2018-07-21T23:58:02.848Z,82.08
